createdAt,value
2019-04-26T00:01:37.731Z,17.30
2019-04-26T00:04:45.084Z,17.20
2019-04-26T00:07:52.706Z,17.24
2019-04-26T00:11:14.342Z,17.23
2019-04-26T00:14:55.239Z,17.12
2019-04-26T00:18:02.183Z,17.04
2019-04-26T00:21:09.596Z,17.12
2019-04-26T00:24:19.348Z,17.06
2019-04-26T00:27:26.227Z,17.05
2019-04-26T00:30:32.855Z,16.76
2019-04-26T00:33:39.541Z,16.69
2019-04-26T00:36:48.606Z,16.71
2019-04-26T00:39:56.204Z,16.87
2019-04-26T00:43:06.355Z,16.76
2019-04-26T00:46:14.706Z,16.80
2019-04-26T00:49:24.743Z,16.74
2019-04-26T00:52:31.929Z,16.78
2019-04-26T00:55:38.842Z,16.60
2019-04-26T00:58:45.987Z,16.53
2019-04-26T01:01:57.294Z,16.45
2019-04-26T01:05:04.035Z,16.52
2019-04-26T01:08:10.609Z,16.38
2019-04-26T01:11:17.671Z,16.26
2019-04-26T01:14:24.402Z,16.23
2019-04-26T01:17:31.083Z,16.11
2019-04-26T01:20:40.869Z,16.04
2019-04-26T01:23:50.649Z,16.09
2019-04-26T01:27:00.232Z,16.00
2019-04-26T01:30:11.509Z,15.92
2019-04-26T01:33:18.753Z,15.97
2019-04-26T01:36:29.126Z,15.82
2019-04-26T01:39:38.441Z,15.72
2019-04-26T01:42:54.441Z,15.85
2019-04-26T01:46:10.372Z,15.82
2019-04-26T01:49:21.341Z,15.83
2019-04-26T01:52:29.737Z,15.69
2019-04-26T01:55:36.576Z,15.50
2019-04-26T01:58:43.550Z,15.51
2019-04-26T02:02:08.329Z,15.66
2019-04-26T02:05:22.588Z,15.37
2019-04-26T02:08:30.374Z,15.60
2019-04-26T02:11:37.387Z,15.44
2019-04-26T02:14:44.178Z,15.24
2019-04-26T02:17:54.130Z,15.57
2019-04-26T02:21:16.344Z,15.55
2019-04-26T02:24:37.923Z,15.28
2019-04-26T02:27:44.668Z,15.29
2019-04-26T02:30:51.593Z,15.24
2019-04-26T02:33:59.102Z,15.29
2019-04-26T02:37:08.978Z,14.94
2019-04-26T02:40:18.730Z,14.97
2019-04-26T02:43:28.607Z,15.35
2019-04-26T02:46:48.862Z,15.01
2019-04-26T02:50:03.093Z,14.73
2019-04-26T02:53:39.693Z,14.74
2019-04-26T02:56:48.559Z,14.61
2019-04-26T03:00:05.531Z,14.91
2019-04-26T03:03:14.137Z,14.59
2019-04-26T03:06:20.928Z,14.16
2019-04-26T03:09:31.355Z,14.43
2019-04-26T03:12:43.205Z,14.72
2019-04-26T03:16:10.849Z,14.63
2019-04-26T03:19:36.207Z,14.21
2019-04-26T03:23:16.862Z,14.53
2019-04-26T03:26:48.343Z,14.54
2019-04-26T03:30:22.098Z,14.22
2019-04-26T03:34:13.877Z,14.30
2019-04-26T03:37:44.523Z,14.21
2019-04-26T03:41:08.909Z,14.36
2019-04-26T03:44:38.853Z,13.74
2019-04-26T03:48:09.627Z,13.87
2019-04-26T03:51:45.283Z,14.05
2019-04-26T03:54:56.501Z,13.93
2019-04-26T03:58:08.730Z,14.16
2019-04-26T04:01:16.835Z,13.91
2019-04-26T04:04:37.726Z,13.91
2019-04-26T04:07:50.958Z,13.86
2019-04-26T04:11:05.359Z,13.77
2019-04-26T04:14:40.500Z,13.61
2019-04-26T04:18:12.444Z,14.02
2019-04-26T04:21:47.057Z,13.78
2019-04-26T04:24:58.816Z,13.13
2019-04-26T04:28:27.393Z,13.19
2019-04-26T04:31:42.160Z,12.82
2019-04-26T04:34:53.713Z,12.65
2019-04-26T04:38:11.409Z,13.05
2019-04-26T04:41:34.199Z,12.34
2019-04-26T04:45:06.177Z,13.26
2019-04-26T04:48:22.035Z,12.89
2019-04-26T04:52:27.451Z,13.03
2019-04-26T04:56:16.787Z,12.10
2019-04-26T05:00:00.726Z,12.44
2019-04-26T05:03:28.914Z,13.13
2019-04-26T05:07:16.988Z,13.40
2019-04-26T05:10:37.003Z,13.26
2019-04-26T05:14:03.989Z,13.59
2019-04-26T05:17:59.292Z,13.35
2019-04-26T05:21:30.545Z,13.61
2019-04-26T05:24:59.884Z,13.82
2019-04-26T05:28:19.299Z,13.91
2019-04-26T05:32:29.545Z,13.92
2019-04-26T05:37:06.860Z,13.75
2019-04-26T05:40:42.852Z,14.15
2019-04-26T05:44:17.711Z,14.15
2019-04-26T05:48:05.241Z,14.34
2019-04-26T05:52:14.127Z,14.39
2019-04-26T05:56:38.263Z,14.48
2019-04-26T06:00:24.665Z,14.47
2019-04-26T06:04:25.274Z,14.49
2019-04-26T06:08:31.230Z,14.69
2019-04-26T06:11:42.744Z,14.83
2019-04-26T06:15:43.501Z,14.80
2019-04-26T06:19:18.091Z,14.95
2019-04-26T06:22:59.714Z,15.20
2019-04-26T06:27:14.152Z,15.31
2019-04-26T06:30:45.062Z,15.28
2019-04-26T06:34:07.687Z,15.42
2019-04-26T06:37:57.310Z,15.37
2019-04-26T06:42:00.778Z,15.40
2019-04-26T06:45:43.774Z,15.45
2019-04-26T06:49:31.090Z,15.45
2019-04-26T06:52:59.672Z,15.54
2019-04-26T06:56:53.023Z,15.59
2019-04-26T07:00:20.325Z,15.60
2019-04-26T07:03:49.272Z,15.71
2019-04-26T07:07:18.907Z,15.66
2019-04-26T07:11:11.804Z,15.81
2019-04-26T07:15:03.824Z,15.76
2019-04-26T07:18:46.825Z,16.18
2019-04-26T07:22:34.744Z,16.26
2019-04-26T07:26:45.329Z,16.19
2019-04-26T07:30:23.536Z,16.35
2019-04-26T07:34:32.249Z,16.42
2019-04-26T07:38:52.947Z,16.37
2019-04-26T07:42:53.600Z,16.52
2019-04-26T07:46:43.624Z,16.32
2019-04-26T07:50:57.121Z,16.66
2019-04-26T07:55:18.369Z,16.48
2019-04-26T07:59:27.273Z,16.60
2019-04-26T08:02:57.349Z,16.46
2019-04-26T08:06:36.868Z,16.59
2019-04-26T08:09:59.905Z,16.48
2019-04-26T08:13:13.756Z,16.99
2019-04-26T08:16:56.787Z,17.11
2019-04-26T08:20:28.196Z,17.15
2019-04-26T08:23:44.544Z,17.15
2019-04-26T08:27:13.637Z,17.14
2019-04-26T08:30:19.301Z,17.16
2019-04-26T08:33:35.410Z,17.25
2019-04-26T08:37:06.718Z,17.08
2019-04-26T08:40:23.296Z,17.38
2019-04-26T08:43:49.981Z,17.50
2019-04-26T08:47:14.081Z,17.50
2019-04-26T08:50:20.748Z,17.93
2019-04-26T08:53:31.870Z,17.89
2019-04-26T08:56:46.676Z,17.66
2019-04-26T08:59:57.838Z,17.71
2019-04-26T09:03:18.455Z,17.52
2019-04-26T09:06:49.845Z,17.52
2019-04-26T09:10:01.540Z,17.73
2019-04-26T09:13:11.576Z,17.90
2019-04-26T09:16:21.118Z,17.58
2019-04-26T09:19:30.540Z,17.73
2019-04-26T09:23:04.948Z,17.86
2019-04-26T09:26:14.936Z,17.84
2019-04-26T09:29:31.777Z,17.36
2019-04-26T09:33:03.556Z,17.92
2019-04-26T09:36:10.133Z,18.09
2019-04-26T09:39:17.445Z,18.21
2019-04-26T09:42:41.766Z,18.01
2019-04-26T09:45:59.590Z,18.25
2019-04-26T09:49:29.186Z,18.21
2019-04-26T09:52:46.113Z,18.38
2019-04-26T09:55:55.684Z,18.12
2019-04-26T09:59:05.700Z,18.23
2019-04-26T10:02:11.423Z,18.26
2019-04-26T10:05:22.162Z,18.64
2019-04-26T10:08:26.826Z,18.13
2019-04-26T10:11:39.587Z,18.60
2019-04-26T10:15:12.316Z,18.51
2019-04-26T10:18:20.327Z,19.08
2019-04-26T10:21:27.736Z,19.69
2019-04-26T10:24:34.672Z,19.51
2019-04-26T10:27:44.461Z,19.68
2019-04-26T10:30:51.450Z,19.63
2019-04-26T10:33:58.215Z,19.91
2019-04-26T10:41:08.336Z,19.76
2019-04-26T10:44:14.876Z,19.69
2019-04-26T10:47:21.405Z,20.16
2019-04-26T10:50:28.787Z,20.03
2019-04-26T10:53:44.481Z,19.80
2019-04-26T10:56:59.624Z,20.24
2019-04-26T11:00:14.152Z,20.02
2019-04-26T11:03:19.514Z,20.20
2019-04-26T11:06:27.873Z,20.04
2019-04-26T11:09:35.146Z,20.20
2019-04-26T11:12:44.829Z,19.81
2019-04-26T11:15:52.791Z,19.60
2019-04-26T11:19:01.107Z,20.17
2019-04-26T11:22:07.994Z,19.95
2019-04-26T11:25:14.698Z,20.33
2019-04-26T11:28:22.908Z,19.53
2019-04-26T11:31:30.800Z,19.69
2019-04-26T11:34:42.822Z,20.15
2019-04-26T11:37:50.709Z,20.24
2019-04-26T11:41:05.779Z,20.65
2019-04-26T11:44:06.160Z,20.37
2019-04-26T11:47:12.939Z,20.24
2019-04-26T11:50:20.858Z,20.05
2019-04-26T11:53:27.353Z,20.54
2019-04-26T11:56:37.465Z,19.30
2019-04-26T11:59:44.193Z,20.00
2019-04-26T12:02:52.273Z,20.03
2019-04-26T12:06:17.713Z,20.39
2019-04-26T12:09:49.246Z,20.25
2019-04-26T12:13:05.126Z,20.32
2019-04-26T12:16:04.218Z,20.25
2019-04-26T12:19:14.309Z,20.46
2019-04-26T12:22:20.025Z,20.78
2019-04-26T12:25:26.744Z,20.01
2019-04-26T12:28:36.346Z,20.69
2019-04-26T12:31:43.042Z,20.59
2019-04-26T12:34:52.157Z,20.33
2019-04-26T12:38:02.844Z,20.25
2019-04-26T12:41:11.629Z,19.93
2019-04-26T12:44:19.289Z,19.61
2019-04-26T12:47:34.529Z,19.73
2019-04-26T12:50:39.443Z,19.91
2019-04-26T12:53:47.354Z,19.82
2019-04-26T12:56:55.605Z,20.00
2019-04-26T13:00:03.547Z,20.05
2019-04-26T13:03:20.023Z,19.77
2019-04-26T13:06:19.076Z,18.93
2019-04-26T13:09:26.735Z,18.97
2019-04-26T13:12:44.264Z,18.69
2019-04-26T13:15:56.815Z,19.17
2019-04-26T13:19:06.604Z,19.00
2019-04-26T13:22:14.283Z,18.80
2019-04-26T13:25:26.509Z,18.74
2019-04-26T13:28:29.499Z,18.82
2019-04-26T13:31:38.838Z,19.03
2019-04-26T13:34:45.516Z,19.06
2019-04-26T13:37:51.982Z,19.31
2019-04-26T13:40:59.841Z,19.91
2019-04-26T13:44:07.200Z,19.50
2019-04-26T13:47:47.666Z,19.23
2019-04-26T13:51:01.280Z,18.96
2019-04-26T13:54:07.011Z,18.98
2019-04-26T13:57:13.552Z,19.03
2019-04-26T14:00:26.439Z,18.78
2019-04-26T14:03:34.551Z,18.75
2019-04-26T14:06:41.054Z,18.57
2019-04-26T14:09:48.153Z,18.62
2019-04-26T14:12:54.659Z,19.05
2019-04-26T14:16:01.260Z,18.74
2019-04-26T14:19:14.448Z,18.85
2019-04-26T14:22:20.172Z,18.77
2019-04-26T14:25:32.050Z,18.47
2019-04-26T14:28:38.728Z,18.81
2019-04-26T14:31:47.249Z,18.86
2019-04-26T14:34:53.494Z,18.70
2019-04-26T14:38:00.154Z,18.36
2019-04-26T14:41:06.925Z,18.44
2019-04-26T14:44:15.586Z,18.08
2019-04-26T14:47:22.049Z,18.17
2019-04-26T14:50:32.088Z,17.98
2019-04-26T14:53:38.067Z,18.41
2019-04-26T14:56:52.120Z,18.08
2019-04-26T14:59:58.504Z,17.83
2019-04-26T15:03:17.393Z,17.85
2019-04-26T15:06:29.595Z,17.59
2019-04-26T15:09:36.735Z,17.42
2019-04-26T15:12:48.797Z,17.30
2019-04-26T15:15:55.111Z,17.46
2019-04-26T15:19:01.764Z,17.39
2019-04-26T15:22:10.305Z,17.13
2019-04-26T15:25:19.763Z,17.04
2019-04-26T15:28:27.043Z,17.06
2019-04-26T15:31:34.178Z,16.90
2019-04-26T15:34:40.842Z,16.63
2019-04-26T15:37:47.317Z,16.58
2019-04-26T15:41:16.727Z,16.51
2019-04-26T15:49:15.699Z,16.07
2019-04-26T15:52:23.544Z,15.75
2019-04-26T15:55:33.854Z,15.66
2019-04-26T15:58:45.925Z,15.76
2019-04-26T16:01:52.147Z,15.76
2019-04-26T16:04:58.775Z,15.76
2019-04-26T16:08:07.288Z,15.61
2019-04-26T16:11:14.043Z,15.47
2019-04-26T16:14:26.391Z,15.22
2019-04-26T16:17:28.961Z,15.06
2019-04-26T16:20:48.838Z,15.17
2019-04-26T16:23:57.483Z,15.08
2019-04-26T16:27:08.455Z,15.00
2019-04-26T16:30:35.409Z,14.96
2019-04-26T16:33:41.069Z,14.97
2019-04-26T16:36:47.646Z,15.06
2019-04-26T16:39:56.348Z,14.99
2019-04-26T16:43:04.159Z,15.03
2019-04-26T16:46:12.589Z,14.80
2019-04-26T16:49:19.916Z,14.55
2019-04-26T16:52:33.326Z,14.67
2019-04-26T16:55:48.887Z,14.99
2019-04-26T16:58:50.168Z,14.58
2019-04-26T17:02:01.433Z,14.02
2019-04-26T17:05:19.084Z,14.41
2019-04-26T17:08:18.988Z,14.50
2019-04-26T17:11:23.068Z,14.41
2019-04-26T17:14:29.963Z,14.20
2019-04-26T17:17:37.032Z,13.60
2019-04-26T17:20:44.938Z,13.75
2019-04-26T17:24:12.207Z,13.22
2019-04-26T17:27:19.652Z,13.14
2019-04-26T17:30:26.589Z,12.83
2019-04-26T17:33:35.551Z,12.84
2019-04-26T17:36:46.482Z,12.47
2019-04-26T17:39:57.440Z,12.29
2019-04-26T17:43:05.437Z,12.32
2019-04-26T17:46:14.575Z,11.80
2019-04-26T17:49:26.986Z,11.66
2019-04-26T17:52:35.823Z,11.77
2019-04-26T17:55:37.819Z,11.96
2019-04-26T17:58:52.466Z,11.50
2019-04-26T18:02:00.902Z,11.53
2019-04-26T18:05:03.601Z,11.13
2019-04-26T18:08:33.744Z,11.14
2019-04-26T18:11:24.757Z,11.13
2019-04-26T18:14:30.319Z,11.05
2019-04-26T18:18:17.407Z,10.88
2019-04-26T18:21:49.640Z,10.65
2019-04-26T18:24:55.786Z,10.75
2019-04-26T18:28:04.499Z,10.84
2019-04-26T18:31:14.824Z,10.81
2019-04-26T18:34:21.118Z,10.51
2019-04-26T18:37:27.905Z,10.59
2019-04-26T18:40:58.501Z,10.64
2019-04-26T18:43:46.299Z,10.16
2019-04-26T18:46:59.032Z,10.45
2019-04-26T18:50:06.768Z,10.54
2019-04-26T18:53:39.600Z,10.87
2019-04-26T18:56:49.690Z,10.54
2019-04-26T18:59:56.460Z,10.43
2019-04-26T19:03:03.052Z,10.49
2019-04-26T19:06:09.674Z,10.13
2019-04-26T19:09:18.697Z,10.32
2019-04-26T19:12:27.111Z,10.64
2019-04-26T19:15:51.695Z,10.66
2019-04-26T19:19:22.588Z,10.02
2019-04-26T19:22:22.540Z,10.60
2019-04-26T19:25:33.258Z,10.72
2019-04-26T19:28:39.929Z,10.24
2019-04-26T19:31:46.282Z,10.20
2019-04-26T19:34:52.886Z,10.52
2019-04-26T19:37:59.520Z,10.42
2019-04-26T19:41:06.124Z,10.47
2019-04-26T19:44:14.739Z,9.94
2019-04-26T19:47:35.435Z,10.36
2019-04-26T19:50:50.192Z,9.96
2019-04-26T19:54:02.753Z,9.69
2019-04-26T19:57:38.870Z,10.16
2019-04-26T20:00:46.510Z,10.12
2019-04-26T20:03:55.049Z,9.92
2019-04-26T20:07:01.257Z,10.08
2019-04-26T20:10:08.261Z,10.01
2019-04-26T20:13:16.639Z,10.60
2019-04-26T20:16:25.821Z,10.35
2019-04-26T20:19:37.305Z,10.02
2019-04-26T20:22:42.137Z,9.33
2019-04-26T20:25:52.763Z,9.64
2019-04-26T20:28:58.946Z,9.41
2019-04-26T20:32:24.025Z,9.32
2019-04-26T20:35:31.852Z,9.48
2019-04-26T20:38:45.540Z,9.55
2019-04-26T20:41:46.854Z,9.26
2019-04-26T20:44:53.882Z,9.13
2019-04-26T20:48:02.230Z,9.22
2019-04-26T20:51:11.023Z,9.32
2019-04-26T20:54:17.435Z,9.03
2019-04-26T20:57:26.631Z,9.14
2019-04-26T21:00:36.516Z,9.43
2019-04-26T21:03:45.888Z,9.30
2019-04-26T21:06:52.050Z,9.06
2019-04-26T21:09:59.507Z,9.21
2019-04-26T21:13:06.558Z,9.09
2019-04-26T21:16:15.519Z,8.74
2019-04-26T21:19:22.030Z,8.86
2019-04-26T21:22:28.931Z,8.73
2019-04-26T21:25:56.296Z,9.03
2019-04-26T21:29:33.622Z,9.18
2019-04-26T21:33:03.500Z,9.45
2019-04-26T21:36:23.224Z,9.34
2019-04-26T21:39:49.899Z,9.39
2019-04-26T21:42:59.550Z,9.43
2019-04-26T21:46:19.378Z,8.74
2019-04-26T21:49:39.932Z,9.20
2019-04-26T21:52:46.563Z,9.00
2019-04-26T21:55:54.642Z,8.58
2019-04-26T21:59:01.227Z,8.97
2019-04-26T22:02:08.337Z,8.53
2019-04-26T22:05:17.969Z,8.79
2019-04-26T22:08:30.972Z,8.92
2019-04-26T22:11:36.153Z,8.94
2019-04-26T22:14:46.444Z,9.11
2019-04-26T22:17:56.042Z,9.56
2019-04-26T22:21:08.834Z,8.90
2019-04-26T22:24:23.732Z,9.27
2019-04-26T22:27:32.070Z,8.96
2019-04-26T22:30:38.693Z,8.99
2019-04-26T22:33:45.075Z,8.83
2019-04-26T22:36:53.543Z,8.65
2019-04-26T22:39:59.751Z,8.88
2019-04-26T22:43:44.361Z,9.17
2019-04-26T22:47:09.864Z,8.67
2019-04-26T22:50:20.783Z,9.34
2019-04-26T22:53:25.860Z,8.71
2019-04-26T22:56:37.136Z,8.50
2019-04-26T22:59:49.734Z,9.33
2019-04-26T23:02:53.371Z,8.42
2019-04-26T23:05:59.952Z,8.94
2019-04-26T23:09:11.517Z,8.44
2019-04-26T23:12:34.478Z,8.66
2019-04-26T23:16:00.643Z,8.17
2019-04-26T23:19:29.877Z,8.67
2019-04-26T23:22:36.373Z,8.37
2019-04-26T23:25:43.504Z,8.53
2019-04-26T23:28:51.441Z,8.90
2019-04-26T23:31:59.520Z,8.78
2019-04-26T23:35:06.366Z,8.82
2019-04-26T23:38:14.019Z,8.99
2019-04-26T23:41:20.534Z,8.30
2019-04-26T23:44:27.000Z,8.37
2019-04-26T23:47:38.657Z,8.30
2019-04-26T23:50:43.289Z,8.28
2019-04-26T23:53:50.495Z,9.26
2019-04-26T23:56:57.919Z,8.54
